createdAt,value
2019-03-22T00:02:16.430Z,19.10
2019-03-22T00:04:47.300Z,30.40
2019-03-22T00:07:19.865Z,20.47
2019-03-22T00:09:50.712Z,18.60
2019-03-22T00:12:21.527Z,19.90
2019-03-22T00:14:52.383Z,22.30
2019-03-22T00:17:23.273Z,24.77
2019-03-22T00:19:54.161Z,20.17
2019-03-22T00:22:25.108Z,19.87
2019-03-22T00:24:56.101Z,21.50
2019-03-22T00:27:26.985Z,17.60
2019-03-22T00:29:57.860Z,27.30
2019-03-22T00:32:28.702Z,22.20
2019-03-22T00:34:59.571Z,17.93
2019-03-22T00:37:31.483Z,18.47
2019-03-22T00:40:02.373Z,23.37
2019-03-22T00:42:33.192Z,18.37
2019-03-22T00:45:04.647Z,16.03
2019-03-22T00:47:35.515Z,26.43
2019-03-22T00:50:06.581Z,20.37
2019-03-22T00:52:37.472Z,24.40
2019-03-22T00:55:08.643Z,22.77
2019-03-22T00:57:39.640Z,21.33
2019-03-22T01:00:10.621Z,20.90
2019-03-22T01:02:41.490Z,18.67
2019-03-22T01:05:12.397Z,22.77
2019-03-22T01:07:43.374Z,16.60
2019-03-22T01:10:14.596Z,18.60
2019-03-22T01:12:45.561Z,25.13
2019-03-22T01:15:17.074Z,34.53
2019-03-22T01:17:47.872Z,24.63
2019-03-22T01:20:18.743Z,19.43
2019-03-22T01:22:49.648Z,23.33
2019-03-22T01:25:20.502Z,23.57
2019-03-22T01:27:51.407Z,20.60
2019-03-22T01:30:22.346Z,27.50
2019-03-22T01:32:53.221Z,17.13
2019-03-22T01:35:24.048Z,14.90
2019-03-22T01:37:54.917Z,22.83
2019-03-22T01:40:25.781Z,23.97
2019-03-22T01:42:56.660Z,24.60
2019-03-22T01:45:27.581Z,26.83
2019-03-22T01:47:58.455Z,18.07
2019-03-22T01:50:29.378Z,26.50
2019-03-22T01:53:00.224Z,25.10
2019-03-22T01:55:31.505Z,25.57
2019-03-22T01:58:02.408Z,19.63
2019-03-22T02:00:34.193Z,24.13
2019-03-22T02:03:05.185Z,24.63
2019-03-22T02:05:36.021Z,22.93
2019-03-22T02:08:06.897Z,18.23
2019-03-22T02:10:37.769Z,19.90
2019-03-22T02:13:08.656Z,20.00
2019-03-22T02:15:39.541Z,29.20
2019-03-22T02:18:10.402Z,22.00
2019-03-22T02:20:42.418Z,20.23
2019-03-22T02:23:13.234Z,16.40
2019-03-22T02:25:44.041Z,26.47
2019-03-22T02:28:15.192Z,19.73
2019-03-22T02:30:46.064Z,26.03
2019-03-22T02:33:16.923Z,15.40
2019-03-22T02:35:47.814Z,21.43
2019-03-22T02:38:19.474Z,33.70
2019-03-22T02:40:50.332Z,23.93
2019-03-22T02:43:21.151Z,32.63
2019-03-22T02:45:52.031Z,28.97
2019-03-22T02:48:22.862Z,20.20
2019-03-22T02:50:56.176Z,18.50
2019-03-22T02:53:26.237Z,22.80
2019-03-22T02:55:57.418Z,22.07
2019-03-22T02:58:28.203Z,22.13
2019-03-22T03:00:59.318Z,20.23
2019-03-22T03:03:30.252Z,26.63
2019-03-22T03:06:01.103Z,30.17
2019-03-22T03:08:33.952Z,29.67
2019-03-22T03:11:05.020Z,24.00
2019-03-22T03:13:35.865Z,26.87
2019-03-22T03:16:06.724Z,24.13
2019-03-22T03:18:37.626Z,38.27
2019-03-22T03:21:08.450Z,27.80
2019-03-22T03:23:39.326Z,29.43
2019-03-22T03:26:10.193Z,24.27
2019-03-22T03:28:41.069Z,32.50
2019-03-22T03:31:11.934Z,29.03
2019-03-22T03:33:42.824Z,29.03
2019-03-22T03:36:14.104Z,33.47
2019-03-22T03:38:45.877Z,34.20
2019-03-22T03:41:16.693Z,33.67
2019-03-22T03:43:47.614Z,26.17
2019-03-22T03:46:18.464Z,30.30
2019-03-22T03:48:49.337Z,27.40
2019-03-22T03:51:20.748Z,29.10
2019-03-22T03:53:51.615Z,26.73
2019-03-22T03:56:22.478Z,35.60
2019-03-22T03:58:53.252Z,33.03
2019-03-22T04:01:24.156Z,27.23
2019-03-22T04:03:55.079Z,32.13
2019-03-22T04:06:25.998Z,25.13
2019-03-22T04:08:56.856Z,26.73
2019-03-22T04:11:27.704Z,36.83
2019-03-22T04:13:58.578Z,31.93
2019-03-22T04:16:29.424Z,25.43
2019-03-22T04:19:01.368Z,29.20
2019-03-22T04:21:32.224Z,27.77
2019-03-22T04:24:03.132Z,28.90
2019-03-22T04:26:34.111Z,29.92
2019-03-22T04:29:07.650Z,25.10
2019-03-22T04:31:37.487Z,29.03
2019-03-22T04:34:08.364Z,26.40
2019-03-22T04:36:39.250Z,18.97
2019-03-22T04:39:10.110Z,25.07
2019-03-22T04:41:41.023Z,25.10
2019-03-22T04:44:11.898Z,27.60
2019-03-22T04:46:44.803Z,28.33
2019-03-22T04:49:16.582Z,26.90
2019-03-22T04:51:47.549Z,21.30
2019-03-22T04:54:20.024Z,21.80
2019-03-22T04:56:52.697Z,21.20
2019-03-22T04:59:24.833Z,32.97
2019-03-22T05:01:59.286Z,21.33
2019-03-22T05:04:30.797Z,31.23
2019-03-22T05:07:02.133Z,23.37
2019-03-22T05:09:35.265Z,20.10
2019-03-22T05:12:06.843Z,24.40
2019-03-22T05:14:39.321Z,22.47
2019-03-22T05:17:11.871Z,25.03
2019-03-22T05:19:46.867Z,21.60
2019-03-22T05:22:19.723Z,25.10
2019-03-22T05:24:50.697Z,26.93
2019-03-22T05:27:22.860Z,23.47
2019-03-22T05:29:56.397Z,24.87
2019-03-22T05:32:27.256Z,22.23
2019-03-22T05:34:58.670Z,20.50
2019-03-22T05:37:29.506Z,30.10
2019-03-22T05:40:00.426Z,22.77
2019-03-22T05:42:31.270Z,20.47
2019-03-22T05:45:02.238Z,20.57
2019-03-22T05:47:34.097Z,25.60
2019-03-22T05:50:05.401Z,29.03
2019-03-22T05:52:36.314Z,24.93
2019-03-22T05:55:07.633Z,21.23
2019-03-22T05:57:38.515Z,33.43
2019-03-22T06:00:09.611Z,25.10
2019-03-22T06:02:40.754Z,22.10
2019-03-22T06:05:11.663Z,31.80
2019-03-22T06:07:42.509Z,29.27
2019-03-22T06:10:13.441Z,30.93
2019-03-22T06:12:44.216Z,19.70
2019-03-22T06:15:15.672Z,22.37
2019-03-22T06:17:51.854Z,25.70
2019-03-22T06:20:20.068Z,21.93
2019-03-22T06:22:50.948Z,28.00
2019-03-22T06:25:21.765Z,29.83
2019-03-22T06:27:52.613Z,20.43
2019-03-22T06:30:23.712Z,26.20
2019-03-22T06:32:54.647Z,20.67
2019-03-22T06:35:25.502Z,20.83
2019-03-22T06:37:56.363Z,18.60
2019-03-22T06:40:27.853Z,18.40
2019-03-22T06:42:58.725Z,19.80
2019-03-22T06:45:29.578Z,29.63
2019-03-22T06:48:00.511Z,20.83
2019-03-22T06:50:31.401Z,20.07
2019-03-22T06:53:02.284Z,18.33
2019-03-22T06:55:33.547Z,19.30
2019-03-22T06:58:04.405Z,21.90
2019-03-22T07:00:35.203Z,23.63
2019-03-22T07:03:06.079Z,19.90
2019-03-22T07:05:37.421Z,23.10
2019-03-22T07:08:08.285Z,32.93
2019-03-22T07:10:39.217Z,26.17
2019-03-22T07:13:10.086Z,25.57
2019-03-22T07:15:40.941Z,17.33
2019-03-22T07:18:11.869Z,16.97
2019-03-22T07:20:42.669Z,21.53
2019-03-22T07:23:13.577Z,17.47
2019-03-22T07:25:44.425Z,23.93
2019-03-22T07:28:15.323Z,19.13
2019-03-22T07:30:48.020Z,22.57
2019-03-22T07:33:18.979Z,18.83
2019-03-22T07:35:49.841Z,20.63
2019-03-22T07:38:20.986Z,16.57
2019-03-22T07:40:52.433Z,20.40
2019-03-22T07:43:23.629Z,20.53
2019-03-22T07:45:55.828Z,21.07
2019-03-22T07:48:26.757Z,17.07
2019-03-22T07:50:57.667Z,17.20
2019-03-22T07:53:30.491Z,29.13
2019-03-22T07:56:01.569Z,17.17
2019-03-22T07:58:32.574Z,16.37
2019-03-22T08:01:03.671Z,13.40
2019-03-22T08:03:34.733Z,15.17
2019-03-22T08:06:05.997Z,19.23
2019-03-22T08:08:37.005Z,15.87
2019-03-22T08:11:08.977Z,12.83
2019-03-22T08:13:40.389Z,15.03
2019-03-22T08:16:11.481Z,12.90
2019-03-22T08:18:42.425Z,14.43
2019-03-22T08:21:13.395Z,13.90
2019-03-22T08:23:44.299Z,11.30
2019-03-22T08:26:15.287Z,16.60
2019-03-22T08:28:46.223Z,20.33
2019-03-22T08:31:17.086Z,16.17
2019-03-22T08:33:48.027Z,12.67
2019-03-22T08:36:18.940Z,9.20
2019-03-22T08:38:49.814Z,10.00
2019-03-22T08:41:20.639Z,11.40
2019-03-22T08:43:51.621Z,10.60
2019-03-22T08:46:22.471Z,16.63
2019-03-22T08:48:53.362Z,14.20
2019-03-22T08:51:24.262Z,10.43
2019-03-22T08:53:55.840Z,13.70
2019-03-22T08:56:26.975Z,7.03
2019-03-22T08:58:58.909Z,9.73
2019-03-22T09:01:30.873Z,7.23
2019-03-22T09:04:01.797Z,8.20
2019-03-22T09:06:32.697Z,12.33
2019-03-22T09:09:04.206Z,8.73
2019-03-22T09:11:35.351Z,9.73
2019-03-22T09:14:07.286Z,8.17
2019-03-22T09:16:38.176Z,6.70
2019-03-22T09:19:08.990Z,7.00
2019-03-22T09:21:39.975Z,7.30
2019-03-22T09:24:10.870Z,11.67
2019-03-22T09:26:47.515Z,7.23
2019-03-22T09:29:14.259Z,10.73
2019-03-22T09:31:45.157Z,6.77
2019-03-22T09:34:16.067Z,11.27
2019-03-22T09:36:46.917Z,10.57
2019-03-22T09:39:17.977Z,7.07
2019-03-22T09:41:48.872Z,8.30
2019-03-22T09:44:19.704Z,12.90
2019-03-22T09:46:50.605Z,10.43
2019-03-22T09:49:21.695Z,8.20
2019-03-22T09:51:55.084Z,9.70
2019-03-22T09:54:25.029Z,7.90
2019-03-22T09:56:55.985Z,6.10
2019-03-22T09:59:26.917Z,11.90
2019-03-22T10:01:57.887Z,6.70
2019-03-22T10:04:28.889Z,8.50
2019-03-22T10:06:59.693Z,4.63
2019-03-22T10:09:30.618Z,6.23
2019-03-22T10:12:02.341Z,5.13
2019-03-22T10:14:33.320Z,7.90
2019-03-22T10:17:04.254Z,6.83
2019-03-22T10:19:35.269Z,5.67
2019-03-22T10:22:06.141Z,6.40
2019-03-22T10:24:37.421Z,3.90
2019-03-22T10:27:11.541Z,4.70
2019-03-22T10:29:42.371Z,6.30
2019-03-22T10:32:13.357Z,4.63
2019-03-22T10:34:44.212Z,6.90
2019-03-22T10:37:15.093Z,6.90
2019-03-22T10:39:45.994Z,8.00
2019-03-22T10:42:17.542Z,7.40
2019-03-22T10:44:48.825Z,4.90
2019-03-22T10:47:19.744Z,3.33
2019-03-22T10:49:50.763Z,5.30
2019-03-22T10:52:21.562Z,4.30
2019-03-22T10:54:52.311Z,5.63
2019-03-22T10:57:23.297Z,7.47
2019-03-22T10:59:54.195Z,4.27
2019-03-22T11:02:25.047Z,5.13
2019-03-22T11:04:55.918Z,5.50
2019-03-22T11:07:26.864Z,3.27
2019-03-22T11:09:57.746Z,3.70
2019-03-22T11:12:29.249Z,6.67
2019-03-22T11:15:00.129Z,4.67
2019-03-22T11:17:33.345Z,5.73
2019-03-22T11:20:05.009Z,6.20
2019-03-22T11:22:35.797Z,3.63
2019-03-22T11:25:07.843Z,4.10
2019-03-22T11:27:38.647Z,5.57
2019-03-22T11:30:11.969Z,7.40
2019-03-22T11:32:50.470Z,6.60
2019-03-22T11:35:21.328Z,3.40
2019-03-22T11:37:52.134Z,4.60
2019-03-22T11:40:23.035Z,4.23
2019-03-22T11:43:08.013Z,4.63
2019-03-22T11:45:30.755Z,4.23
2019-03-22T11:48:01.653Z,8.40
2019-03-22T11:50:32.437Z,4.90
2019-03-22T11:53:03.349Z,5.27
2019-03-22T11:55:35.431Z,4.97
2019-03-22T11:58:06.316Z,4.50
2019-03-22T12:00:37.279Z,4.73
2019-03-22T12:03:08.213Z,3.60
2019-03-22T12:05:40.578Z,5.33
2019-03-22T12:08:13.684Z,4.47
2019-03-22T12:10:47.341Z,5.40
2019-03-22T12:13:20.942Z,4.77
2019-03-22T12:15:51.847Z,5.63
2019-03-22T12:18:22.734Z,5.17
2019-03-22T12:20:53.655Z,7.73
2019-03-22T12:23:24.529Z,4.77
2019-03-22T12:25:55.464Z,3.83
2019-03-22T12:28:26.734Z,5.03
2019-03-22T12:30:58.885Z,4.97
2019-03-22T12:33:29.983Z,6.03
2019-03-22T12:36:01.782Z,3.97
2019-03-22T12:38:33.108Z,5.00
2019-03-22T12:41:04.150Z,4.70
2019-03-22T12:43:37.760Z,5.10
2019-03-22T12:46:09.092Z,5.30
2019-03-22T12:48:41.571Z,4.40
2019-03-22T12:51:15.745Z,5.57
2019-03-22T12:53:52.985Z,4.57
2019-03-22T12:56:24.676Z,6.10
2019-03-22T12:58:58.211Z,5.67
2019-03-22T13:01:29.487Z,4.07
2019-03-22T13:04:00.447Z,4.50
2019-03-22T13:06:31.783Z,3.70
2019-03-22T13:09:02.850Z,5.33
2019-03-22T13:11:33.864Z,3.83
2019-03-22T13:14:04.958Z,10.70
2019-03-22T13:16:37.463Z,5.36
2019-03-22T13:19:08.441Z,6.40
2019-03-22T13:21:41.073Z,8.27
2019-03-22T13:24:12.459Z,5.07
2019-03-22T13:26:43.359Z,11.80
2019-03-22T13:29:14.230Z,4.90
2019-03-22T13:31:45.241Z,5.93
2019-03-22T13:34:16.140Z,3.50
2019-03-22T13:36:47.171Z,4.77
2019-03-22T13:39:19.108Z,4.07
2019-03-22T13:41:50.055Z,3.40
2019-03-22T13:44:21.126Z,3.30
2019-03-22T13:46:52.099Z,3.63
2019-03-22T13:49:22.952Z,4.60
2019-03-22T13:51:54.053Z,3.63
2019-03-22T13:54:25.049Z,5.73
2019-03-22T13:56:55.960Z,6.53
2019-03-22T13:59:26.859Z,4.53
2019-03-22T14:01:57.796Z,4.83
2019-03-22T14:04:29.048Z,3.60
2019-03-22T14:07:01.978Z,3.60
2019-03-22T14:09:33.212Z,5.43
2019-03-22T14:12:04.347Z,4.23
2019-03-22T14:14:35.863Z,4.17
2019-03-22T14:17:08.000Z,4.50
2019-03-22T14:19:39.166Z,7.77
2019-03-22T14:22:29.473Z,6.17
2019-03-22T14:25:00.481Z,4.47
2019-03-22T14:27:31.408Z,5.10
2019-03-22T14:30:02.278Z,4.60
2019-03-22T14:32:33.117Z,3.80
2019-03-22T14:35:04.177Z,5.50
2019-03-22T14:37:35.104Z,5.20
2019-03-22T14:40:06.113Z,4.30
2019-03-22T14:42:36.998Z,3.53
2019-03-22T14:45:18.727Z,4.00
2019-03-22T14:47:49.574Z,3.60
2019-03-22T14:50:20.385Z,4.43
2019-03-22T14:52:53.365Z,3.50
2019-03-22T14:55:23.693Z,3.80
2019-03-22T14:57:54.513Z,4.47
2019-03-22T15:00:25.334Z,6.07
2019-03-22T15:02:56.177Z,4.00
2019-03-22T15:05:27.093Z,3.00
2019-03-22T15:07:58.011Z,4.60
2019-03-22T15:10:28.956Z,3.80
2019-03-22T15:13:00.035Z,5.80
2019-03-22T15:15:36.941Z,4.83
2019-03-22T15:18:33.421Z,4.43
2019-03-22T15:21:19.993Z,4.40
2019-03-22T15:24:12.601Z,3.03
2019-03-22T15:27:05.185Z,3.27
2019-03-22T15:29:57.231Z,3.30
2019-03-22T15:32:47.085Z,3.60
2019-03-22T15:35:35.491Z,4.90
2019-03-22T15:38:37.735Z,5.37
2019-03-22T15:41:08.826Z,4.47
2019-03-22T15:43:39.901Z,3.80
2019-03-22T15:46:11.779Z,5.23
2019-03-22T15:48:42.739Z,4.93
2019-03-22T15:51:32.394Z,6.30
2019-03-22T15:54:03.261Z,3.80
2019-03-22T15:56:34.135Z,3.83
2019-03-22T15:59:05.345Z,4.10
2019-03-22T16:01:36.602Z,5.00
2019-03-22T16:04:07.487Z,4.00
2019-03-22T16:06:38.357Z,4.27
2019-03-22T16:09:09.584Z,4.00
2019-03-22T16:11:40.498Z,4.23
2019-03-22T16:14:11.355Z,4.57
2019-03-22T16:16:43.445Z,3.70
2019-03-22T16:19:14.324Z,3.33
2019-03-22T16:21:45.268Z,4.90
2019-03-22T16:24:16.119Z,3.90
2019-03-22T16:26:46.957Z,4.50
2019-03-22T16:29:17.857Z,5.10
2019-03-22T16:31:48.757Z,3.20
2019-03-22T16:34:19.583Z,6.40
2019-03-22T16:36:50.450Z,3.10
2019-03-22T16:39:21.285Z,5.13
2019-03-22T16:41:52.449Z,4.10
2019-03-22T16:44:23.273Z,3.97
2019-03-22T16:46:54.831Z,4.30
2019-03-22T16:49:25.829Z,4.00
2019-03-22T16:51:56.711Z,3.50
2019-03-22T16:54:27.606Z,4.23
2019-03-22T16:56:58.617Z,5.33
2019-03-22T16:59:29.536Z,3.80
2019-03-22T17:02:00.449Z,3.80
2019-03-22T17:04:34.286Z,2.80
2019-03-22T17:07:05.186Z,4.80
2019-03-22T17:09:36.026Z,4.70
2019-03-22T17:12:07.046Z,6.37
2019-03-22T17:14:38.003Z,4.67
2019-03-22T17:17:10.007Z,5.87
2019-03-22T17:19:40.905Z,4.60
2019-03-22T17:22:11.793Z,4.90
2019-03-22T17:24:42.679Z,4.53
2019-03-22T17:27:13.590Z,4.77
2019-03-22T17:29:44.471Z,4.40
2019-03-22T17:32:15.366Z,9.80
2019-03-22T17:34:46.246Z,4.80
2019-03-22T17:37:17.175Z,5.23
2019-03-22T17:39:48.058Z,4.90
2019-03-22T17:42:20.090Z,5.20
2019-03-22T17:44:52.987Z,4.00
2019-03-22T17:47:25.375Z,5.83
2019-03-22T17:49:56.221Z,6.07
2019-03-22T17:52:27.090Z,4.43
2019-03-22T17:54:57.986Z,5.33
2019-03-22T17:57:28.884Z,5.60
2019-03-22T17:59:59.953Z,7.60
2019-03-22T18:02:30.881Z,16.60
2019-03-22T18:05:01.768Z,8.63
2019-03-22T18:07:32.708Z,10.83
2019-03-22T18:10:03.738Z,8.50
2019-03-22T18:12:34.583Z,6.10
2019-03-22T18:15:07.083Z,8.03
2019-03-22T18:17:39.283Z,5.80
2019-03-22T18:20:10.773Z,5.80
2019-03-22T18:22:41.606Z,8.80
2019-03-22T18:25:15.694Z,6.47
2019-03-22T18:27:46.161Z,6.57
2019-03-22T18:30:17.565Z,6.80
2019-03-22T18:32:48.419Z,7.10
2019-03-22T18:35:19.302Z,8.77
2019-03-22T18:37:50.232Z,7.40
2019-03-22T18:40:21.665Z,5.90
2019-03-22T18:42:52.580Z,8.05
2019-03-22T18:45:23.552Z,12.53
2019-03-22T18:47:55.316Z,17.27
2019-03-22T18:50:26.346Z,6.20
2019-03-22T18:52:57.366Z,8.15
2019-03-22T18:55:28.288Z,10.43
2019-03-22T18:57:59.179Z,7.60
2019-03-22T19:00:30.034Z,8.55
2019-03-22T19:03:03.034Z,12.15
2019-03-22T19:05:34.038Z,8.93
2019-03-22T19:08:05.010Z,13.53
2019-03-22T19:10:36.048Z,11.28
2019-03-22T19:13:07.852Z,10.55
2019-03-22T19:15:38.780Z,11.35
2019-03-22T19:18:09.742Z,11.88
2019-03-22T19:20:40.513Z,13.15
2019-03-22T19:23:11.422Z,11.40
2019-03-22T19:25:42.370Z,10.82
2019-03-22T19:28:13.256Z,9.95
2019-03-22T19:30:44.250Z,10.72
2019-03-22T19:33:15.359Z,12.40
2019-03-22T19:35:46.172Z,10.03
2019-03-22T19:38:17.083Z,13.18
2019-03-22T19:40:47.997Z,14.80
2019-03-22T19:43:19.108Z,12.73
2019-03-22T19:45:50.156Z,14.58
2019-03-22T19:48:21.807Z,11.28
2019-03-22T19:50:53.128Z,11.73
2019-03-22T19:53:24.016Z,9.75
2019-03-22T19:55:54.919Z,9.93
2019-03-22T19:58:25.832Z,11.78
2019-03-22T20:00:56.773Z,14.40
2019-03-22T20:03:27.800Z,13.88
2019-03-22T20:05:59.782Z,16.73
2019-03-22T20:08:30.714Z,15.30
2019-03-22T20:11:01.545Z,18.12
2019-03-22T20:13:33.084Z,18.52
2019-03-22T20:16:03.924Z,11.50
2019-03-22T20:18:35.605Z,11.68
2019-03-22T20:21:06.571Z,12.70
2019-03-22T20:23:37.313Z,11.45
2019-03-22T20:26:08.238Z,17.37
2019-03-22T20:28:39.095Z,14.18
2019-03-22T20:31:09.979Z,13.45
2019-03-22T20:33:40.850Z,15.18
2019-03-22T20:36:11.692Z,16.42
2019-03-22T20:38:42.590Z,12.78
2019-03-22T20:41:13.995Z,14.63
2019-03-22T20:43:45.317Z,15.30
2019-03-22T20:46:16.196Z,14.85
2019-03-22T20:48:47.410Z,14.35
2019-03-22T20:51:18.266Z,16.15
2019-03-22T20:53:49.109Z,12.82
2019-03-22T20:56:20.028Z,25.43
2019-03-22T20:58:50.881Z,16.10
2019-03-22T21:01:21.799Z,21.35
2019-03-22T21:03:52.705Z,17.85
2019-03-22T21:06:23.721Z,26.50
2019-03-22T21:08:54.617Z,20.35
2019-03-22T21:11:25.487Z,19.40
2019-03-22T21:13:56.413Z,16.75
2019-03-22T21:16:27.280Z,22.13
2019-03-22T21:18:59.642Z,16.90
2019-03-22T21:21:36.520Z,27.87
2019-03-22T21:24:05.711Z,18.90
2019-03-22T21:26:37.508Z,14.95
2019-03-22T21:29:10.856Z,21.73
2019-03-22T21:31:41.757Z,14.55
2019-03-22T21:34:12.720Z,17.37
2019-03-22T21:36:43.564Z,18.10
2019-03-22T21:39:14.475Z,15.65
2019-03-22T21:41:45.234Z,16.40
2019-03-22T21:44:17.513Z,20.08
2019-03-22T21:46:48.353Z,17.20
2019-03-22T21:49:20.024Z,22.80
2019-03-22T21:51:50.902Z,20.57
2019-03-22T21:54:21.737Z,17.17
2019-03-22T21:56:52.627Z,23.92
2019-03-22T21:59:23.498Z,16.02
2019-03-22T22:01:54.381Z,13.90
2019-03-22T22:04:25.286Z,16.25
2019-03-22T22:06:56.153Z,16.12
2019-03-22T22:09:27.055Z,16.42
2019-03-22T22:11:57.912Z,17.52
2019-03-22T22:14:28.879Z,15.75
2019-03-22T22:16:59.821Z,16.95
2019-03-22T22:19:31.009Z,20.60
2019-03-22T22:22:01.925Z,30.72
2019-03-22T22:24:32.765Z,14.78
2019-03-22T22:27:13.377Z,16.60
2019-03-22T22:29:36.124Z,17.85
2019-03-22T22:32:07.000Z,22.45
2019-03-22T22:34:37.837Z,17.25
2019-03-22T22:37:08.712Z,24.65
2019-03-22T22:39:39.601Z,15.85
2019-03-22T22:42:10.520Z,20.85
2019-03-22T22:44:41.366Z,17.73
2019-03-22T22:47:12.673Z,21.70
2019-03-22T22:49:43.830Z,17.80
2019-03-22T22:52:14.672Z,27.13
2019-03-22T22:54:45.555Z,17.55
2019-03-22T22:57:16.405Z,23.60
2019-03-22T22:59:47.273Z,21.02
2019-03-22T23:02:18.187Z,25.08
2019-03-22T23:04:49.047Z,17.45
2019-03-22T23:07:19.975Z,21.50
2019-03-22T23:09:50.883Z,24.90
2019-03-22T23:12:21.787Z,27.22
2019-03-22T23:14:52.685Z,18.95
2019-03-22T23:17:23.597Z,23.27
2019-03-22T23:19:55.933Z,23.50
2019-03-22T23:22:26.926Z,31.45
2019-03-22T23:24:57.760Z,23.47
2019-03-22T23:27:28.705Z,23.70
2019-03-22T23:30:00.781Z,27.73
2019-03-22T23:32:31.646Z,25.65
2019-03-22T23:35:02.698Z,32.98
2019-03-22T23:37:34.693Z,23.77
2019-03-22T23:40:05.978Z,25.70
2019-03-22T23:42:36.775Z,21.30
2019-03-22T23:45:09.946Z,27.50
2019-03-22T23:47:40.845Z,24.67
2019-03-22T23:50:11.703Z,23.70
2019-03-22T23:52:42.565Z,32.65
2019-03-22T23:55:13.407Z,33.70
2019-03-22T23:57:44.207Z,19.55
